sensor_id;sensor_type;location;lat;lon;timestamp;P1;durP1;ratioP1;P2;durP2;ratioP2
19291;SDS011;9779;51.756;7.450;2022-10-22T00:01:32;2.00;;;1.90;;
19291;SDS011;9779;51.756;7.450;2022-10-22T00:03:58;3.33;;;1.87;;
19291;SDS011;9779;51.756;7.450;2022-10-22T00:06:24;5.90;;;1.90;;
19291;SDS011;9779;51.756;7.450;2022-10-22T00:08:50;5.63;;;1.90;;
19291;SDS011;9779;51.756;7.450;2022-10-22T00:11:17;2.07;;;1.87;;
19291;SDS011;9779;51.756;7.450;2022-10-22T00:13:43;1.57;;;1.47;;
19291;SDS011;9779;51.756;7.450;2022-10-22T00:16:10;2.73;;;1.63;;
19291;SDS011;9779;51.756;7.450;2022-10-22T00:18:36;1.53;;;1.43;;
19291;SDS011;9779;51.756;7.450;2022-10-22T00:21:02;1.37;;;1.37;;
19291;SDS011;9779;51.756;7.450;2022-10-22T00:23:31;1.70;;;1.60;;
19291;SDS011;9779;51.756;7.450;2022-10-22T00:25:56;6.30;;;1.63;;
19291;SDS011;9779;51.756;7.450;2022-10-22T00:28:22;5.20;;;1.60;;
19291;SDS011;9779;51.756;7.450;2022-10-22T00:30:53;2.00;;;1.53;;
19291;SDS011;9779;51.756;7.450;2022-10-22T00:33:20;2.87;;;1.87;;
19291;SDS011;9779;51.756;7.450;2022-10-22T00:35:46;2.77;;;2.13;;
19291;SDS011;9779;51.756;7.450;2022-10-22T00:38:11;1.70;;;1.60;;
19291;SDS011;9779;51.756;7.450;2022-10-22T00:40:37;1.90;;;1.57;;
19291;SDS011;9779;51.756;7.450;2022-10-22T00:43:02;5.67;;;2.40;;
19291;SDS011;9779;51.756;7.450;2022-10-22T00:45:28;2.00;;;1.47;;
19291;SDS011;9779;51.756;7.450;2022-10-22T00:47:58;1.80;;;1.70;;
19291;SDS011;9779;51.756;7.450;2022-10-22T00:50:40;5.80;;;1.90;;
19291;SDS011;9779;51.756;7.450;2022-10-22T00:53:25;4.87;;;1.63;;
19291;SDS011;9779;51.756;7.450;2022-10-22T00:55:56;3.00;;;1.63;;
19291;SDS011;9779;51.756;7.450;2022-10-22T00:58:23;4.13;;;1.77;;
19291;SDS011;9779;51.756;7.450;2022-10-22T01:00:52;2.27;;;1.70;;
19291;SDS011;9779;51.756;7.450;2022-10-22T01:03:18;7.73;;;1.73;;
19291;SDS011;9779;51.756;7.450;2022-10-22T01:06:03;2.90;;;1.63;;
19291;SDS011;9779;51.756;7.450;2022-10-22T01:08:37;2.63;;;2.10;;
19291;SDS011;9779;51.756;7.450;2022-10-22T01:11:10;2.13;;;1.90;;
19291;SDS011;9779;51.756;7.450;2022-10-22T01:13:46;2.00;;;1.80;;
19291;SDS011;9779;51.756;7.450;2022-10-22T01:16:31;4.90;;;2.00;;
19291;SDS011;9779;51.756;7.450;2022-10-22T01:21:33;3.17;;;1.50;;
19291;SDS011;9779;51.756;7.450;2022-10-22T01:24:28;3.23;;;1.63;;
19291;SDS011;9779;51.756;7.450;2022-10-22T01:27:02;1.97;;;1.87;;
19291;SDS011;9779;51.756;7.450;2022-10-22T01:29:52;1.60;;;1.50;;
19291;SDS011;9779;51.756;7.450;2022-10-22T01:32:24;3.53;;;1.80;;
19291;SDS011;9779;51.756;7.450;2022-10-22T01:35:01;2.70;;;1.80;;
19291;SDS011;9779;51.756;7.450;2022-10-22T01:37:30;1.83;;;1.73;;
19291;SDS011;9779;51.756;7.450;2022-10-22T01:39:58;1.57;;;1.47;;
19291;SDS011;9779;51.756;7.450;2022-10-22T01:42:26;3.23;;;2.23;;
19291;SDS011;9779;51.756;7.450;2022-10-22T01:44:51;2.23;;;1.83;;
19291;SDS011;9779;51.756;7.450;2022-10-22T01:47:23;1.77;;;1.67;;
19291;SDS011;9779;51.756;7.450;2022-10-22T01:50:13;1.93;;;1.60;;
19291;SDS011;9779;51.756;7.450;2022-10-22T02:03:48;1.90;;;1.70;;
19291;SDS011;9779;51.756;7.450;2022-10-22T02:06:20;2.83;;;2.00;;
19291;SDS011;9779;51.756;7.450;2022-10-22T02:08:47;2.77;;;2.20;;
19291;SDS011;9779;51.756;7.450;2022-10-22T02:11:14;1.80;;;1.70;;
19291;SDS011;9779;51.756;7.450;2022-10-22T02:14:00;3.93;;;1.77;;
19291;SDS011;9779;51.756;7.450;2022-10-22T02:17:02;4.50;;;1.60;;
19291;SDS011;9779;51.756;7.450;2022-10-22T02:19:26;1.90;;;1.80;;
19291;SDS011;9779;51.756;7.450;2022-10-22T02:22:01;1.90;;;1.80;;
19291;SDS011;9779;51.756;7.450;2022-10-22T02:24:28;2.23;;;1.90;;
19291;SDS011;9779;51.756;7.450;2022-10-22T02:26:58;1.87;;;1.77;;
19291;SDS011;9779;51.756;7.450;2022-10-22T02:29:34;1.83;;;1.73;;
19291;SDS011;9779;51.756;7.450;2022-10-22T02:32:10;3.10;;;2.03;;
19291;SDS011;9779;51.756;7.450;2022-10-22T02:34:40;2.00;;;1.90;;
19291;SDS011;9779;51.756;7.450;2022-10-22T02:37:06;3.47;;;2.30;;
19291;SDS011;9779;51.756;7.450;2022-10-22T02:39:33;2.20;;;2.10;;
19291;SDS011;9779;51.756;7.450;2022-10-22T02:42:01;2.70;;;2.20;;
19291;SDS011;9779;51.756;7.450;2022-10-22T02:44:27;2.57;;;1.90;;
19291;SDS011;9779;51.756;7.450;2022-10-22T02:46:52;3.13;;;1.93;;
19291;SDS011;9779;51.756;7.450;2022-10-22T02:49:18;4.87;;;2.00;;
19291;SDS011;9779;51.756;7.450;2022-10-22T02:51:43;5.50;;;2.20;;
19291;SDS011;9779;51.756;7.450;2022-10-22T02:54:09;1.70;;;1.60;;
19291;SDS011;9779;51.756;7.450;2022-10-22T02:56:35;2.20;;;2.10;;
19291;SDS011;9779;51.756;7.450;2022-10-22T02:59:00;2.33;;;2.13;;
19291;SDS011;9779;51.756;7.450;2022-10-22T03:01:26;3.03;;;2.07;;
19291;SDS011;9779;51.756;7.450;2022-10-22T03:03:51;2.97;;;2.40;;
19291;SDS011;9779;51.756;7.450;2022-10-22T03:06:17;5.30;;;2.70;;
19291;SDS011;9779;51.756;7.450;2022-10-22T03:08:43;1.70;;;1.60;;
19291;SDS011;9779;51.756;7.450;2022-10-22T03:11:08;1.73;;;1.63;;
19291;SDS011;9779;51.756;7.450;2022-10-22T03:13:34;2.63;;;2.50;;
19291;SDS011;9779;51.756;7.450;2022-10-22T03:16:00;4.90;;;2.63;;
19291;SDS011;9779;51.756;7.450;2022-10-22T03:18:26;2.10;;;1.90;;
19291;SDS011;9779;51.756;7.450;2022-10-22T03:20:58;2.80;;;1.70;;
19291;SDS011;9779;51.756;7.450;2022-10-22T03:23:32;2.20;;;2.10;;
19291;SDS011;9779;51.756;7.450;2022-10-22T03:25:57;2.27;;;2.17;;
19291;SDS011;9779;51.756;7.450;2022-10-22T03:28:23;2.40;;;2.30;;
19291;SDS011;9779;51.756;7.450;2022-10-22T03:30:50;2.43;;;2.33;;
19291;SDS011;9779;51.756;7.450;2022-10-22T03:33:16;2.63;;;2.43;;
19291;SDS011;9779;51.756;7.450;2022-10-22T03:35:43;2.90;;;2.60;;
19291;SDS011;9779;51.756;7.450;2022-10-22T03:38:10;2.70;;;2.60;;
19291;SDS011;9779;51.756;7.450;2022-10-22T03:40:37;2.30;;;2.20;;
19291;SDS011;9779;51.756;7.450;2022-10-22T03:43:03;2.60;;;2.50;;
19291;SDS011;9779;51.756;7.450;2022-10-22T03:45:28;5.30;;;2.60;;
19291;SDS011;9779;51.756;7.450;2022-10-22T03:47:54;6.47;;;2.53;;
19291;SDS011;9779;51.756;7.450;2022-10-22T03:50:19;2.30;;;2.20;;
19291;SDS011;9779;51.756;7.450;2022-10-22T03:52:45;2.90;;;2.70;;
19291;SDS011;9779;51.756;7.450;2022-10-22T03:55:11;2.63;;;2.13;;
19291;SDS011;9779;51.756;7.450;2022-10-22T03:57:36;2.60;;;2.40;;
19291;SDS011;9779;51.756;7.450;2022-10-22T04:00:03;2.40;;;2.30;;
19291;SDS011;9779;51.756;7.450;2022-10-22T04:02:30;2.10;;;2.00;;
19291;SDS011;9779;51.756;7.450;2022-10-22T04:04:55;5.50;;;2.20;;
19291;SDS011;9779;51.756;7.450;2022-10-22T04:07:21;2.00;;;1.90;;
19291;SDS011;9779;51.756;7.450;2022-10-22T04:09:46;1.97;;;1.77;;
19291;SDS011;9779;51.756;7.450;2022-10-22T04:12:12;1.87;;;1.30;;
19291;SDS011;9779;51.756;7.450;2022-10-22T04:14:38;3.77;;;1.50;;
19291;SDS011;9779;51.756;7.450;2022-10-22T04:17:03;2.37;;;1.63;;
19291;SDS011;9779;51.756;7.450;2022-10-22T04:19:29;1.33;;;1.03;;
19291;SDS011;9779;51.756;7.450;2022-10-22T04:21:56;3.17;;;0.80;;
19291;SDS011;9779;51.756;7.450;2022-10-22T04:24:23;1.03;;;0.90;;
19291;SDS011;9779;51.756;7.450;2022-10-22T04:26:48;1.00;;;1.00;;
19291;SDS011;9779;51.756;7.450;2022-10-22T04:29:14;0.80;;;0.80;;
19291;SDS011;9779;51.756;7.450;2022-10-22T04:31:40;1.90;;;0.70;;
19291;SDS011;9779;51.756;7.450;2022-10-22T04:34:05;1.03;;;0.90;;
19291;SDS011;9779;51.756;7.450;2022-10-22T04:36:31;1.00;;;1.00;;
19291;SDS011;9779;51.756;7.450;2022-10-22T04:38:58;1.57;;;0.90;;
19291;SDS011;9779;51.756;7.450;2022-10-22T04:41:26;0.90;;;0.90;;
19291;SDS011;9779;51.756;7.450;2022-10-22T04:43:59;1.37;;;0.80;;
19291;SDS011;9779;51.756;7.450;2022-10-22T04:46:26;2.07;;;0.80;;
19291;SDS011;9779;51.756;7.450;2022-10-22T04:48:53;1.97;;;1.17;;
19291;SDS011;9779;51.756;7.450;2022-10-22T04:51:20;1.90;;;1.23;;
19291;SDS011;9779;51.756;7.450;2022-10-22T04:53:47;5.00;;;1.00;;
19291;SDS011;9779;51.756;7.450;2022-10-22T04:56:17;2.13;;;1.13;;
19291;SDS011;9779;51.756;7.450;2022-10-22T04:58:44;3.90;;;1.83;;
19291;SDS011;9779;51.756;7.450;2022-10-22T05:01:16;2.00;;;1.10;;
19291;SDS011;9779;51.756;7.450;2022-10-22T05:03:50;3.53;;;1.37;;
19291;SDS011;9779;51.756;7.450;2022-10-22T05:06:17;0.93;;;0.93;;
19291;SDS011;9779;51.756;7.450;2022-10-22T05:08:44;2.70;;;1.30;;
19291;SDS011;9779;51.756;7.450;2022-10-22T05:11:15;1.50;;;1.40;;
19291;SDS011;9779;51.756;7.450;2022-10-22T05:13:42;1.70;;;1.60;;
19291;SDS011;9779;51.756;7.450;2022-10-22T05:16:08;2.97;;;1.30;;
19291;SDS011;9779;51.756;7.450;2022-10-22T05:18:35;1.70;;;1.60;;
19291;SDS011;9779;51.756;7.450;2022-10-22T05:21:02;1.43;;;1.33;;
19291;SDS011;9779;51.756;7.450;2022-10-22T05:23:29;4.47;;;1.63;;
19291;SDS011;9779;51.756;7.450;2022-10-22T05:25:55;5.37;;;1.80;;
19291;SDS011;9779;51.756;7.450;2022-10-22T05:28:20;1.30;;;1.20;;
19291;SDS011;9779;51.756;7.450;2022-10-22T05:30:54;5.37;;;1.50;;
19291;SDS011;9779;51.756;7.450;2022-10-22T05:33:20;2.33;;;1.70;;
19291;SDS011;9779;51.756;7.450;2022-10-22T05:35:47;1.80;;;1.70;;
19291;SDS011;9779;51.756;7.450;2022-10-22T05:38:13;2.00;;;1.80;;
19291;SDS011;9779;51.756;7.450;2022-10-22T05:40:39;2.03;;;1.90;;
19291;SDS011;9779;51.756;7.450;2022-10-22T05:43:05;1.70;;;1.60;;
19291;SDS011;9779;51.756;7.450;2022-10-22T05:45:30;2.30;;;2.10;;
19291;SDS011;9779;51.756;7.450;2022-10-22T05:47:59;2.20;;;2.00;;
19291;SDS011;9779;51.756;7.450;2022-10-22T05:50:25;4.00;;;1.90;;
19291;SDS011;9779;51.756;7.450;2022-10-22T05:52:50;9.47;;;2.13;;
19291;SDS011;9779;51.756;7.450;2022-10-22T05:55:16;5.13;;;1.90;;
19291;SDS011;9779;51.756;7.450;2022-10-22T05:57:41;2.37;;;2.17;;
19291;SDS011;9779;51.756;7.450;2022-10-22T06:00:07;7.50;;;1.97;;
19291;SDS011;9779;51.756;7.450;2022-10-22T06:02:33;3.20;;;2.10;;
19291;SDS011;9779;51.756;7.450;2022-10-22T06:04:59;4.13;;;2.10;;
19291;SDS011;9779;51.756;7.450;2022-10-22T06:07:24;2.97;;;1.97;;
19291;SDS011;9779;51.756;7.450;2022-10-22T06:09:50;6.03;;;2.30;;
19291;SDS011;9779;51.756;7.450;2022-10-22T06:12:17;2.20;;;2.00;;
19291;SDS011;9779;51.756;7.450;2022-10-22T06:14:43;7.67;;;2.67;;
19291;SDS011;9779;51.756;7.450;2022-10-22T06:17:09;5.30;;;2.90;;
19291;SDS011;9779;51.756;7.450;2022-10-22T06:19:36;3.93;;;2.57;;
19291;SDS011;9779;51.756;7.450;2022-10-22T06:22:02;8.43;;;3.00;;
19291;SDS011;9779;51.756;7.450;2022-10-22T06:24:28;5.60;;;2.70;;
19291;SDS011;9779;51.756;7.450;2022-10-22T06:26:54;7.53;;;2.70;;
19291;SDS011;9779;51.756;7.450;2022-10-22T06:29:19;7.77;;;3.03;;
19291;SDS011;9779;51.756;7.450;2022-10-22T06:31:45;3.03;;;2.20;;
19291;SDS011;9779;51.756;7.450;2022-10-22T06:34:11;2.63;;;2.43;;
19291;SDS011;9779;51.756;7.450;2022-10-22T06:36:38;4.23;;;2.47;;
19291;SDS011;9779;51.756;7.450;2022-10-22T06:39:06;2.20;;;2.00;;
19291;SDS011;9779;51.756;7.450;2022-10-22T06:41:34;22.60;;;2.37;;
19291;SDS011;9779;51.756;7.450;2022-10-22T06:44:00;4.57;;;2.20;;
19291;SDS011;9779;51.756;7.450;2022-10-22T06:46:26;2.80;;;2.60;;
19291;SDS011;9779;51.756;7.450;2022-10-22T06:48:57;5.57;;;2.40;;
19291;SDS011;9779;51.756;7.450;2022-10-22T06:51:25;2.17;;;2.07;;
19291;SDS011;9779;51.756;7.450;2022-10-22T06:53:51;4.80;;;2.43;;
19291;SDS011;9779;51.756;7.450;2022-10-22T06:56:18;3.60;;;2.43;;
19291;SDS011;9779;51.756;7.450;2022-10-22T06:58:46;6.07;;;2.70;;
19291;SDS011;9779;51.756;7.450;2022-10-22T07:01:13;4.40;;;2.27;;
19291;SDS011;9779;51.756;7.450;2022-10-22T07:03:40;2.50;;;2.20;;
19291;SDS011;9779;51.756;7.450;2022-10-22T07:06:07;2.67;;;2.30;;
19291;SDS011;9779;51.756;7.450;2022-10-22T07:08:34;7.23;;;2.97;;
19291;SDS011;9779;51.756;7.450;2022-10-22T07:11:04;2.77;;;2.43;;
19291;SDS011;9779;51.756;7.450;2022-10-22T07:13:35;4.13;;;2.60;;
19291;SDS011;9779;51.756;7.450;2022-10-22T07:16:00;4.27;;;2.67;;
19291;SDS011;9779;51.756;7.450;2022-10-22T07:18:27;2.73;;;2.53;;
19291;SDS011;9779;51.756;7.450;2022-10-22T07:20:52;4.30;;;2.63;;
19291;SDS011;9779;51.756;7.450;2022-10-22T07:23:18;5.50;;;3.33;;
19291;SDS011;9779;51.756;7.450;2022-10-22T07:25:43;5.07;;;4.77;;
19291;SDS011;9779;51.756;7.450;2022-10-22T07:28:09;3.97;;;3.47;;
19291;SDS011;9779;51.756;7.450;2022-10-22T07:30:35;4.70;;;3.03;;
19291;SDS011;9779;51.756;7.450;2022-10-22T07:33:01;4.60;;;3.40;;
19291;SDS011;9779;51.756;7.450;2022-10-22T07:35:27;3.97;;;2.90;;
19291;SDS011;9779;51.756;7.450;2022-10-22T07:37:53;6.93;;;3.33;;
19291;SDS011;9779;51.756;7.450;2022-10-22T07:40:18;8.97;;;3.37;;
19291;SDS011;9779;51.756;7.450;2022-10-22T07:42:44;6.47;;;3.70;;
19291;SDS011;9779;51.756;7.450;2022-10-22T07:45:09;7.00;;;3.50;;
19291;SDS011;9779;51.756;7.450;2022-10-22T07:47:35;4.60;;;3.67;;
19291;SDS011;9779;51.756;7.450;2022-10-22T07:50:00;4.70;;;3.73;;
19291;SDS011;9779;51.756;7.450;2022-10-22T07:52:26;10.00;;;3.17;;
19291;SDS011;9779;51.756;7.450;2022-10-22T07:54:52;7.03;;;3.97;;
19291;SDS011;9779;51.756;7.450;2022-10-22T07:57:17;13.97;;;3.83;;
19291;SDS011;9779;51.756;7.450;2022-10-22T07:59:43;3.67;;;3.37;;
19291;SDS011;9779;51.756;7.450;2022-10-22T08:02:10;4.07;;;3.63;;
19291;SDS011;9779;51.756;7.450;2022-10-22T08:04:36;6.70;;;3.63;;
19291;SDS011;9779;51.756;7.450;2022-10-22T08:07:02;8.77;;;4.00;;
19291;SDS011;9779;51.756;7.450;2022-10-22T08:09:28;5.40;;;2.97;;
19291;SDS011;9779;51.756;7.450;2022-10-22T08:11:53;9.17;;;3.23;;
19291;SDS011;9779;51.756;7.450;2022-10-22T08:14:19;5.60;;;4.30;;
19291;SDS011;9779;51.756;7.450;2022-10-22T08:16:44;8.67;;;3.93;;
19291;SDS011;9779;51.756;7.450;2022-10-22T08:19:10;5.23;;;3.80;;
19291;SDS011;9779;51.756;7.450;2022-10-22T08:21:37;7.17;;;3.80;;
19291;SDS011;9779;51.756;7.450;2022-10-22T08:24:03;7.00;;;3.00;;
19291;SDS011;9779;51.756;7.450;2022-10-22T08:26:29;9.63;;;3.47;;
19291;SDS011;9779;51.756;7.450;2022-10-22T08:28:55;10.43;;;3.20;;
19291;SDS011;9779;51.756;7.450;2022-10-22T08:31:21;9.63;;;3.40;;
19291;SDS011;9779;51.756;7.450;2022-10-22T08:33:47;6.83;;;2.90;;
19291;SDS011;9779;51.756;7.450;2022-10-22T08:36:12;6.67;;;2.97;;
19291;SDS011;9779;51.756;7.450;2022-10-22T08:38:38;7.17;;;2.87;;
19291;SDS011;9779;51.756;7.450;2022-10-22T08:41:08;6.03;;;2.70;;
19291;SDS011;9779;51.756;7.450;2022-10-22T08:43:49;7.30;;;2.80;;
19291;SDS011;9779;51.756;7.450;2022-10-22T08:49:08;8.83;;;2.63;;
19291;SDS011;9779;51.756;7.450;2022-10-22T08:51:42;5.03;;;2.20;;
19291;SDS011;9779;51.756;7.450;2022-10-22T08:57:01;14.27;;;2.70;;
19291;SDS011;9779;51.756;7.450;2022-10-22T08:59:32;6.93;;;2.67;;
19291;SDS011;9779;51.756;7.450;2022-10-22T09:02:13;5.43;;;2.50;;
19291;SDS011;9779;51.756;7.450;2022-10-22T09:07:46;16.27;;;2.60;;
19291;SDS011;9779;51.756;7.450;2022-10-22T09:10:15;8.57;;;1.73;;
19291;SDS011;9779;51.756;7.450;2022-10-22T09:12:41;7.57;;;2.57;;
19291;SDS011;9779;51.756;7.450;2022-10-22T09:15:11;10.10;;;2.20;;
19291;SDS011;9779;51.756;7.450;2022-10-22T09:17:40;6.10;;;1.93;;
19291;SDS011;9779;51.756;7.450;2022-10-22T09:25:43;4.87;;;1.90;;
19291;SDS011;9779;51.756;7.450;2022-10-22T09:28:10;12.43;;;2.30;;
19291;SDS011;9779;51.756;7.450;2022-10-22T09:30:36;7.20;;;1.70;;
19291;SDS011;9779;51.756;7.450;2022-10-22T09:35:39;6.03;;;1.77;;
19291;SDS011;9779;51.756;7.450;2022-10-22T09:38:07;4.00;;;1.90;;
19291;SDS011;9779;51.756;7.450;2022-10-22T09:40:43;6.93;;;2.37;;
19291;SDS011;9779;51.756;7.450;2022-10-22T09:43:12;11.57;;;1.90;;
19291;SDS011;9779;51.756;7.450;2022-10-22T09:45:38;8.27;;;1.80;;
19291;SDS011;9779;51.756;7.450;2022-10-22T09:48:08;4.97;;;1.73;;
19291;SDS011;9779;51.756;7.450;2022-10-22T09:53:21;6.60;;;1.60;;
19291;SDS011;9779;51.756;7.450;2022-10-22T09:55:51;5.30;;;1.50;;
19291;SDS011;9779;51.756;7.450;2022-10-22T09:58:19;8.17;;;1.70;;
19291;SDS011;9779;51.756;7.450;2022-10-22T10:00:46;8.43;;;1.57;;
19291;SDS011;9779;51.756;7.450;2022-10-22T10:03:16;5.07;;;1.57;;
19291;SDS011;9779;51.756;7.450;2022-10-22T10:05:44;6.03;;;2.00;;
19291;SDS011;9779;51.756;7.450;2022-10-22T10:08:13;11.67;;;1.63;;
19291;SDS011;9779;51.756;7.450;2022-10-22T10:10:47;6.13;;;1.60;;
19291;SDS011;9779;51.756;7.450;2022-10-22T10:13:21;4.40;;;1.43;;
19291;SDS011;9779;51.756;7.450;2022-10-22T10:16:01;3.87;;;1.47;;
19291;SDS011;9779;51.756;7.450;2022-10-22T10:18:51;3.27;;;1.70;;
19291;SDS011;9779;51.756;7.450;2022-10-22T10:24:28;3.77;;;2.00;;
19291;SDS011;9779;51.756;7.450;2022-10-22T10:32:25;5.30;;;1.53;;
19291;SDS011;9779;51.756;7.450;2022-10-22T10:40:42;5.43;;;1.53;;
19291;SDS011;9779;51.756;7.450;2022-10-22T10:43:20;5.93;;;1.70;;
19291;SDS011;9779;51.756;7.450;2022-10-22T10:51:36;6.73;;;2.07;;
19291;SDS011;9779;51.756;7.450;2022-10-22T11:00:09;3.67;;;1.27;;
19291;SDS011;9779;51.756;7.450;2022-10-22T11:08:06;5.53;;;1.40;;
19291;SDS011;9779;51.756;7.450;2022-10-22T11:10:47;8.73;;;1.77;;
19291;SDS011;9779;51.756;7.450;2022-10-22T11:19:11;5.57;;;1.37;;
19291;SDS011;9779;51.756;7.450;2022-10-22T11:21:52;5.47;;;1.77;;
19291;SDS011;9779;51.756;7.450;2022-10-22T11:24:36;7.80;;;1.17;;
19291;SDS011;9779;51.756;7.450;2022-10-22T11:27:52;8.37;;;1.50;;
19291;SDS011;9779;51.756;7.450;2022-10-22T11:30:37;8.07;;;1.70;;
19291;SDS011;9779;51.756;7.450;2022-10-22T11:33:09;4.33;;;1.10;;
19291;SDS011;9779;51.756;7.450;2022-10-22T11:35:42;9.40;;;1.30;;
19291;SDS011;9779;51.756;7.450;2022-10-22T11:38:21;2.90;;;1.23;;
19291;SDS011;9779;51.756;7.450;2022-10-22T11:40:51;4.67;;;1.03;;
19291;SDS011;9779;51.756;7.450;2022-10-22T11:43:35;5.17;;;1.23;;
19291;SDS011;9779;51.756;7.450;2022-10-22T11:46:28;4.10;;;1.10;;
19291;SDS011;9779;51.756;7.450;2022-10-22T11:51:39;6.13;;;1.40;;
19291;SDS011;9779;51.756;7.450;2022-10-22T11:56:57;5.70;;;1.27;;
19291;SDS011;9779;51.756;7.450;2022-10-22T12:02:56;3.70;;;1.40;;
19291;SDS011;9779;51.756;7.450;2022-10-22T12:05:17;5.13;;;1.07;;
19291;SDS011;9779;51.756;7.450;2022-10-22T12:07:57;3.17;;;1.27;;
19291;SDS011;9779;51.756;7.450;2022-10-22T12:10:27;8.90;;;1.47;;
19291;SDS011;9779;51.756;7.450;2022-10-22T12:13:08;9.83;;;1.37;;
19291;SDS011;9779;51.756;7.450;2022-10-22T12:15:45;4.00;;;1.67;;
19291;SDS011;9779;51.756;7.450;2022-10-22T12:18:13;2.30;;;1.03;;
19291;SDS011;9779;51.756;7.450;2022-10-22T12:20:39;5.70;;;1.10;;
19291;SDS011;9779;51.756;7.450;2022-10-22T12:23:04;6.20;;;1.40;;
19291;SDS011;9779;51.756;7.450;2022-10-22T12:25:33;7.63;;;1.20;;
19291;SDS011;9779;51.756;7.450;2022-10-22T12:28:00;4.87;;;1.00;;
19291;SDS011;9779;51.756;7.450;2022-10-22T12:30:27;3.67;;;1.10;;
19291;SDS011;9779;51.756;7.450;2022-10-22T12:32:56;4.27;;;1.20;;
19291;SDS011;9779;51.756;7.450;2022-10-22T12:35:26;3.37;;;1.30;;
19291;SDS011;9779;51.756;7.450;2022-10-22T12:38:15;2.97;;;1.00;;
19291;SDS011;9779;51.756;7.450;2022-10-22T12:40:44;10.47;;;1.20;;
19291;SDS011;9779;51.756;7.450;2022-10-22T12:43:11;3.33;;;1.00;;
19291;SDS011;9779;51.756;7.450;2022-10-22T12:45:39;5.63;;;1.27;;
19291;SDS011;9779;51.756;7.450;2022-10-22T12:48:10;3.90;;;1.53;;
19291;SDS011;9779;51.756;7.450;2022-10-22T12:50:41;5.87;;;1.40;;
19291;SDS011;9779;51.756;7.450;2022-10-22T12:53:17;3.93;;;1.10;;
19291;SDS011;9779;51.756;7.450;2022-10-22T12:55:49;1.83;;;1.10;;
19291;SDS011;9779;51.756;7.450;2022-10-22T12:58:16;3.47;;;0.80;;
19291;SDS011;9779;51.756;7.450;2022-10-22T13:00:45;4.37;;;1.27;;
19291;SDS011;9779;51.756;7.450;2022-10-22T13:03:19;1.17;;;0.80;;
19291;SDS011;9779;51.756;7.450;2022-10-22T13:05:53;1.77;;;0.93;;
19291;SDS011;9779;51.756;7.450;2022-10-22T13:08:20;2.87;;;1.10;;
19291;SDS011;9779;51.756;7.450;2022-10-22T13:10:49;3.67;;;1.00;;
19291;SDS011;9779;51.756;7.450;2022-10-22T13:13:29;7.60;;;1.20;;
19291;SDS011;9779;51.756;7.450;2022-10-22T13:18:39;2.20;;;1.13;;
19291;SDS011;9779;51.756;7.450;2022-10-22T13:21:19;3.27;;;1.33;;
19291;SDS011;9779;51.756;7.450;2022-10-22T13:23:50;4.30;;;1.37;;
19291;SDS011;9779;51.756;7.450;2022-10-22T13:26:17;4.63;;;1.30;;
19291;SDS011;9779;51.756;7.450;2022-10-22T13:28:53;2.27;;;1.10;;
19291;SDS011;9779;51.756;7.450;2022-10-22T13:31:22;2.93;;;1.07;;
19291;SDS011;9779;51.756;7.450;2022-10-22T13:33:56;2.40;;;1.07;;
19291;SDS011;9779;51.756;7.450;2022-10-22T13:36:24;5.23;;;1.60;;
19291;SDS011;9779;51.756;7.450;2022-10-22T13:38:50;6.17;;;1.43;;
19291;SDS011;9779;51.756;7.450;2022-10-22T13:41:20;4.00;;;1.23;;
19291;SDS011;9779;51.756;7.450;2022-10-22T13:43:50;3.47;;;1.17;;
19291;SDS011;9779;51.756;7.450;2022-10-22T13:46:16;7.50;;;1.30;;
19291;SDS011;9779;51.756;7.450;2022-10-22T13:48:42;2.97;;;1.13;;
19291;SDS011;9779;51.756;7.450;2022-10-22T13:51:12;2.63;;;1.10;;
19291;SDS011;9779;51.756;7.450;2022-10-22T13:53:40;7.30;;;1.30;;
19291;SDS011;9779;51.756;7.450;2022-10-22T13:56:09;2.83;;;1.00;;
19291;SDS011;9779;51.756;7.450;2022-10-22T13:58:40;3.13;;;1.50;;
19291;SDS011;9779;51.756;7.450;2022-10-22T14:01:10;3.20;;;1.10;;
19291;SDS011;9779;51.756;7.450;2022-10-22T14:03:51;2.47;;;1.17;;
19291;SDS011;9779;51.756;7.450;2022-10-22T14:06:19;3.80;;;1.47;;
19291;SDS011;9779;51.756;7.450;2022-10-22T14:08:52;4.30;;;1.30;;
19291;SDS011;9779;51.756;7.450;2022-10-22T14:11:22;6.97;;;1.10;;
19291;SDS011;9779;51.756;7.450;2022-10-22T14:13:48;8.53;;;1.00;;
19291;SDS011;9779;51.756;7.450;2022-10-22T14:16:16;3.37;;;1.37;;
19291;SDS011;9779;51.756;7.450;2022-10-22T14:18:49;6.87;;;1.53;;
19291;SDS011;9779;51.756;7.450;2022-10-22T14:21:16;4.03;;;1.20;;
19291;SDS011;9779;51.756;7.450;2022-10-22T14:23:43;4.43;;;1.10;;
19291;SDS011;9779;51.756;7.450;2022-10-22T14:26:29;5.43;;;1.00;;
19291;SDS011;9779;51.756;7.450;2022-10-22T14:28:57;2.47;;;0.73;;
19291;SDS011;9779;51.756;7.450;2022-10-22T14:31:23;4.03;;;0.90;;
19291;SDS011;9779;51.756;7.450;2022-10-22T14:33:49;7.50;;;1.23;;
19291;SDS011;9779;51.756;7.450;2022-10-22T14:36:16;9.80;;;2.20;;
19291;SDS011;9779;51.756;7.450;2022-10-22T14:38:42;7.00;;;2.47;;
19291;SDS011;9779;51.756;7.450;2022-10-22T14:41:17;3.23;;;1.90;;
19291;SDS011;9779;51.756;7.450;2022-10-22T14:43:44;2.70;;;1.53;;
19291;SDS011;9779;51.756;7.450;2022-10-22T14:46:11;8.60;;;1.20;;
19291;SDS011;9779;51.756;7.450;2022-10-22T14:48:38;6.60;;;1.10;;
19291;SDS011;9779;51.756;7.450;2022-10-22T14:51:04;1.73;;;1.40;;
19291;SDS011;9779;51.756;7.450;2022-10-22T14:53:29;2.57;;;1.60;;
19291;SDS011;9779;51.756;7.450;2022-10-22T14:55:55;3.27;;;2.10;;
19291;SDS011;9779;51.756;7.450;2022-10-22T14:58:23;7.20;;;1.13;;
19291;SDS011;9779;51.756;7.450;2022-10-22T15:00:49;3.00;;;1.00;;
19291;SDS011;9779;51.756;7.450;2022-10-22T15:03:15;3.43;;;1.03;;
19291;SDS011;9779;51.756;7.450;2022-10-22T15:05:41;7.53;;;1.00;;
19291;SDS011;9779;51.756;7.450;2022-10-22T15:08:08;7.00;;;1.37;;
19291;SDS011;9779;51.756;7.450;2022-10-22T15:10:38;4.50;;;1.77;;
19291;SDS011;9779;51.756;7.450;2022-10-22T15:13:04;7.07;;;1.13;;
19291;SDS011;9779;51.756;7.450;2022-10-22T15:15:29;7.70;;;1.37;;
19291;SDS011;9779;51.756;7.450;2022-10-22T15:17:55;6.93;;;1.17;;
19291;SDS011;9779;51.756;7.450;2022-10-22T15:20:20;3.57;;;1.23;;
19291;SDS011;9779;51.756;7.450;2022-10-22T15:22:46;4.33;;;2.63;;
19291;SDS011;9779;51.756;7.450;2022-10-22T15:25:12;8.57;;;1.67;;
19291;SDS011;9779;51.756;7.450;2022-10-22T15:27:38;2.17;;;1.43;;
19291;SDS011;9779;51.756;7.450;2022-10-22T15:30:04;3.77;;;1.47;;
19291;SDS011;9779;51.756;7.450;2022-10-22T15:32:30;3.90;;;1.23;;
19291;SDS011;9779;51.756;7.450;2022-10-22T15:34:57;4.97;;;1.10;;
19291;SDS011;9779;51.756;7.450;2022-10-22T15:37:25;5.60;;;1.57;;
19291;SDS011;9779;51.756;7.450;2022-10-22T15:39:51;3.60;;;1.73;;
19291;SDS011;9779;51.756;7.450;2022-10-22T15:42:16;3.20;;;1.60;;
19291;SDS011;9779;51.756;7.450;2022-10-22T15:44:44;2.30;;;1.43;;
19291;SDS011;9779;51.756;7.450;2022-10-22T15:47:10;3.50;;;1.40;;
19291;SDS011;9779;51.756;7.450;2022-10-22T15:49:36;5.40;;;1.97;;
19291;SDS011;9779;51.756;7.450;2022-10-22T15:52:04;5.47;;;2.20;;
19291;SDS011;9779;51.756;7.450;2022-10-22T15:54:30;2.77;;;1.80;;
19291;SDS011;9779;51.756;7.450;2022-10-22T15:56:57;6.13;;;3.50;;
19291;SDS011;9779;51.756;7.450;2022-10-22T15:59:25;5.03;;;3.70;;
19291;SDS011;9779;51.756;7.450;2022-10-22T16:01:51;4.53;;;3.43;;
19291;SDS011;9779;51.756;7.450;2022-10-22T16:04:17;4.23;;;2.80;;
19291;SDS011;9779;51.756;7.450;2022-10-22T16:06:44;3.97;;;2.70;;
19291;SDS011;9779;51.756;7.450;2022-10-22T16:09:12;3.53;;;1.60;;
19291;SDS011;9779;51.756;7.450;2022-10-22T16:11:40;2.33;;;1.50;;
19291;SDS011;9779;51.756;7.450;2022-10-22T16:14:06;1.87;;;1.40;;
19291;SDS011;9779;51.756;7.450;2022-10-22T16:16:34;5.73;;;1.40;;
19291;SDS011;9779;51.756;7.450;2022-10-22T16:19:00;3.20;;;1.33;;
19291;SDS011;9779;51.756;7.450;2022-10-22T16:21:26;8.60;;;1.47;;
19291;SDS011;9779;51.756;7.450;2022-10-22T16:23:52;7.37;;;1.87;;
19291;SDS011;9779;51.756;7.450;2022-10-22T16:26:18;8.03;;;1.83;;
19291;SDS011;9779;51.756;7.450;2022-10-22T16:28:45;6.30;;;2.50;;
19291;SDS011;9779;51.756;7.450;2022-10-22T16:31:12;7.53;;;2.57;;
19291;SDS011;9779;51.756;7.450;2022-10-22T16:33:39;6.60;;;1.70;;